createdAt,value
2022-09-20T00:02:21.455Z,100350.22
2022-09-20T00:05:23.234Z,100352.94
2022-09-20T00:08:24.814Z,100347.31
2022-09-20T00:11:29.452Z,100347.91
2022-09-20T00:14:30.999Z,100342.53
2022-09-20T00:17:32.734Z,100345.37
2022-09-20T00:20:34.426Z,100344.53
2022-09-20T00:23:36.627Z,100343.03
2022-09-20T00:26:38.442Z,100349.34
2022-09-20T00:29:40.836Z,100337.81
2022-09-20T00:32:42.536Z,100341.41
2022-09-20T00:35:44.942Z,100337.97
2022-09-20T00:38:46.611Z,100336.28
2022-09-20T00:41:48.168Z,100340.38
2022-09-20T00:45:00.847Z,100338.37
2022-09-20T00:48:12.337Z,100329.28
2022-09-20T00:51:18.939Z,100322.91
2022-09-20T00:54:23.286Z,100326.13
2022-09-20T00:57:25.083Z,100323.09
2022-09-20T01:00:27.913Z,100319.47
2022-09-20T01:03:33.060Z,100324.44
2022-09-20T01:06:36.203Z,100322.16
2022-09-20T01:09:37.766Z,100323.09
2022-09-20T01:12:40.730Z,100318.13
2022-09-20T01:15:44.650Z,100322.50
2022-09-20T01:18:48.174Z,100320.22
2022-09-20T01:21:50.324Z,100312.31
2022-09-20T01:25:14.218Z,100324.59
2022-09-20T01:28:17.089Z,100323.00
2022-09-20T01:31:25.314Z,100320.50
2022-09-20T01:34:36.219Z,100318.25
2022-09-20T01:38:00.874Z,100316.66
2022-09-20T01:41:15.501Z,100312.16
2022-09-20T01:44:29.731Z,100310.97
2022-09-20T01:47:44.361Z,100312.03
2022-09-20T01:51:07.690Z,100323.91
2022-09-20T01:54:24.558Z,100332.25
2022-09-20T01:57:44.488Z,100331.63
2022-09-20T02:01:04.294Z,100337.50
2022-09-20T02:04:09.076Z,100339.28
2022-09-20T02:07:39.260Z,100340.94
2022-09-20T02:10:58.076Z,100342.63
2022-09-20T02:14:37.240Z,100336.44
2022-09-20T02:18:09.816Z,100333.03
2022-09-20T02:21:21.886Z,100337.91
2022-09-20T02:24:49.265Z,100339.22
2022-09-20T02:28:05.674Z,100346.06
2022-09-20T02:31:21.610Z,100347.97
2022-09-20T02:34:37.656Z,100343.28
2022-09-20T02:38:00.110Z,100347.84
2022-09-20T02:41:07.481Z,100347.19
2022-09-20T02:44:47.461Z,100349.44
2022-09-20T02:47:51.738Z,100358.44
2022-09-20T02:51:08.892Z,100362.22
2022-09-20T02:54:28.765Z,100360.78
2022-09-20T02:57:46.947Z,100358.31
2022-09-20T03:00:56.646Z,100351.97
2022-09-20T03:04:22.882Z,100357.78
2022-09-20T03:07:55.476Z,100355.41
2022-09-20T03:11:24.849Z,100360.62
2022-09-20T03:14:34.545Z,100358.09
2022-09-20T03:17:57.921Z,100354.50
2022-09-20T03:21:05.504Z,100348.50
2022-09-20T03:24:06.988Z,100355.37
2022-09-20T03:27:18.503Z,100348.38
2022-09-20T03:30:32.359Z,100356.53
2022-09-20T03:33:46.227Z,100357.66
2022-09-20T03:37:05.134Z,100359.47
2022-09-20T03:40:36.609Z,100354.63
2022-09-20T03:43:47.451Z,100357.44
2022-09-20T03:46:58.023Z,100358.31
2022-09-20T03:50:38.139Z,100374.81
2022-09-20T03:54:05.718Z,100361.19
2022-09-20T03:57:44.764Z,100364.50
2022-09-20T04:01:05.678Z,100371.28
2022-09-20T04:04:47.276Z,100360.50
2022-09-20T04:08:40.463Z,100361.41
2022-09-20T04:12:05.481Z,100372.03
2022-09-20T04:15:12.716Z,100378.41
2022-09-20T04:18:29.329Z,100388.31
2022-09-20T04:21:51.690Z,100386.88
2022-09-20T04:25:16.117Z,100380.69
2022-09-20T04:28:25.497Z,100381.41
2022-09-20T04:31:53.975Z,100383.13
2022-09-20T04:35:14.714Z,100391.75
2022-09-20T04:38:20.897Z,100386.69
2022-09-20T04:41:38.092Z,100382.81
2022-09-20T04:44:56.125Z,100378.75
2022-09-20T04:48:14.621Z,100387.59
2022-09-20T04:51:34.989Z,100389.34
2022-09-20T04:54:50.435Z,100386.75
2022-09-20T04:58:21.289Z,100383.19
2022-09-20T05:01:47.943Z,100388.12
2022-09-20T05:05:36.101Z,100385.09
2022-09-20T05:08:59.983Z,100386.78
2022-09-20T05:12:35.712Z,100384.91
2022-09-20T05:15:49.981Z,100385.72
2022-09-20T05:19:23.093Z,100393.09
2022-09-20T05:22:39.893Z,100390.94
2022-09-20T05:25:56.541Z,100387.69
2022-09-20T05:29:00.906Z,100396.66
2022-09-20T05:32:12.068Z,100386.75
2022-09-20T05:35:21.545Z,100397.84
2022-09-20T05:38:44.561Z,100396.31
2022-09-20T05:41:52.597Z,100410.44
2022-09-20T05:45:06.349Z,100406.91
2022-09-20T05:48:32.132Z,100404.56
2022-09-20T05:52:21.710Z,100402.78
2022-09-20T05:56:05.167Z,100409.09
2022-09-20T05:59:22.303Z,100417.53
2022-09-20T06:02:59.930Z,100421.72
2022-09-20T06:06:32.684Z,100419.94
2022-09-20T06:09:53.327Z,100426.47
2022-09-20T06:13:03.228Z,100428.25
2022-09-20T06:16:07.766Z,100427.81
2022-09-20T06:19:34.439Z,100422.06
2022-09-20T06:22:45.056Z,100425.31
2022-09-20T06:25:57.667Z,100428.28
2022-09-20T06:29:03.138Z,100428.59
2022-09-20T06:32:04.918Z,100427.19
2022-09-20T06:35:07.075Z,100421.81
2022-09-20T06:38:41.684Z,100424.09
2022-09-20T06:41:44.550Z,100420.47
2022-09-20T06:44:47.111Z,100423.00
2022-09-20T06:47:48.670Z,100421.09
2022-09-20T06:50:52.379Z,100423.25
2022-09-20T06:53:56.075Z,100419.84
2022-09-20T06:56:58.132Z,100426.09
2022-09-20T06:59:59.774Z,100418.97
2022-09-20T07:03:01.380Z,100423.87
2022-09-20T07:06:04.422Z,100422.66
2022-09-20T07:09:06.560Z,100426.81
2022-09-20T07:12:10.758Z,100439.34
2022-09-20T07:15:12.505Z,100429.38
2022-09-20T07:18:14.048Z,100434.56
2022-09-20T07:21:18.761Z,100437.50
2022-09-20T07:24:20.306Z,100456.03
2022-09-20T07:27:22.045Z,100452.25
2022-09-20T07:30:24.198Z,100448.62
2022-09-20T07:33:25.804Z,100455.25
2022-09-20T07:36:27.507Z,100461.22
2022-09-20T07:39:29.685Z,100461.91
2022-09-20T07:42:31.788Z,100461.38
2022-09-20T07:45:35.507Z,100462.38
2022-09-20T07:48:37.162Z,100463.13
2022-09-20T07:51:38.853Z,100461.91
2022-09-20T07:54:40.704Z,100468.41
2022-09-20T07:57:43.067Z,100461.03
2022-09-20T08:00:44.615Z,100459.72
2022-09-20T08:03:46.365Z,100456.63
2022-09-20T08:06:48.220Z,100459.06
2022-09-20T08:09:50.584Z,100457.19
2022-09-20T08:16:14.894Z,100470.31
2022-09-20T08:19:19.271Z,100469.31
2022-09-20T08:22:22.132Z,100477.75
2022-09-20T08:25:23.941Z,100467.44
2022-09-20T08:28:25.492Z,100457.47
2022-09-20T08:31:35.413Z,100460.37
2022-09-20T08:34:37.510Z,100472.69
2022-09-20T08:37:39.303Z,100468.84
2022-09-20T08:40:41.166Z,100468.06
2022-09-20T08:43:46.968Z,100474.16
2022-09-20T08:46:52.484Z,100473.09
2022-09-20T08:49:57.111Z,100474.34
2022-09-20T08:53:05.138Z,100475.53
2022-09-20T08:56:09.222Z,100471.06
2022-09-20T08:59:17.400Z,100470.44
2022-09-20T09:02:21.401Z,100467.53
2022-09-20T09:05:34.143Z,100470.94
2022-09-20T09:08:38.354Z,100465.75
2022-09-20T09:11:45.879Z,100470.53
2022-09-20T09:14:57.360Z,100452.12
2022-09-20T09:17:59.058Z,100462.38
2022-09-20T09:21:04.218Z,100456.69
2022-09-20T09:24:13.896Z,100456.34
2022-09-20T09:27:19.213Z,100449.28
2022-09-20T09:30:24.363Z,100457.03
2022-09-20T09:33:28.314Z,100453.87
2022-09-20T09:36:30.159Z,100455.88
2022-09-20T09:39:35.571Z,100449.66
2022-09-20T09:42:37.287Z,100448.25
2022-09-20T09:45:39.500Z,100451.19
2022-09-20T09:48:41.195Z,100448.44
2022-09-20T09:52:02.737Z,100448.34
2022-09-20T09:55:06.015Z,100446.03
2022-09-20T09:58:23.920Z,100440.87
2022-09-20T10:01:58.067Z,100446.44
2022-09-20T10:05:18.378Z,100446.44
2022-09-20T10:08:53.334Z,100447.75
2022-09-20T10:11:58.770Z,100446.03
2022-09-20T10:15:28.077Z,100443.94
2022-09-20T10:18:38.668Z,100446.19
2022-09-20T10:22:21.778Z,100453.03
2022-09-20T10:25:55.082Z,100452.06
2022-09-20T10:29:24.440Z,100452.56
2022-09-20T10:32:45.966Z,100462.59
2022-09-20T10:36:04.145Z,100465.03
2022-09-20T10:39:27.224Z,100465.75
2022-09-20T10:43:17.629Z,100463.03
2022-09-20T10:46:53.124Z,100474.53
2022-09-20T10:50:07.729Z,100470.66
2022-09-20T10:53:35.479Z,100469.06
2022-09-20T10:56:49.677Z,100462.78
2022-09-20T11:00:04.711Z,100458.47
2022-09-20T11:03:32.372Z,100455.25
2022-09-20T11:06:58.582Z,100456.78
2022-09-20T11:10:16.263Z,100458.69
2022-09-20T11:13:45.999Z,100448.31
2022-09-20T11:17:08.737Z,100450.31
2022-09-20T11:20:42.881Z,100440.66
2022-09-20T11:23:51.808Z,100432.63
2022-09-20T11:26:59.141Z,100430.25
2022-09-20T11:30:01.102Z,100430.91
2022-09-20T11:33:22.453Z,100422.06
2022-09-20T11:36:27.416Z,100422.94
2022-09-20T11:39:46.478Z,100422.00
2022-09-20T11:42:49.968Z,100425.16
2022-09-20T11:45:58.625Z,100416.53
2022-09-20T11:49:11.727Z,100407.06
2022-09-20T11:52:20.184Z,100418.56
2022-09-20T11:55:34.532Z,100407.06
2022-09-20T11:58:55.964Z,100408.84
2022-09-20T12:02:01.711Z,100413.97
2022-09-20T12:05:22.922Z,100407.72
2022-09-20T12:08:28.373Z,100397.16
2022-09-20T12:11:33.718Z,100401.62
2022-09-20T12:14:36.113Z,100404.34
2022-09-20T12:17:46.555Z,100388.75
2022-09-20T12:20:51.504Z,100387.88
2022-09-20T12:23:53.069Z,100390.41
2022-09-20T12:27:15.742Z,100385.13
2022-09-20T12:30:20.982Z,100391.94
2022-09-20T12:34:01.144Z,100378.53
2022-09-20T12:37:05.126Z,100387.47
2022-09-20T12:40:16.388Z,100389.34
2022-09-20T12:43:22.286Z,100383.22
2022-09-20T12:46:36.545Z,100384.06
2022-09-20T12:50:06.279Z,100382.47
2022-09-20T12:53:16.852Z,100380.00
2022-09-20T12:56:28.204Z,100375.69
2022-09-20T12:59:31.265Z,100368.69
2022-09-20T13:02:52.267Z,100365.16
2022-09-20T13:06:06.253Z,100364.28
2022-09-20T13:09:09.497Z,100374.78
2022-09-20T13:12:11.385Z,100370.31
2022-09-20T13:15:19.641Z,100369.56
2022-09-20T13:18:25.302Z,100368.97
2022-09-20T13:21:27.950Z,100349.13
2022-09-20T13:24:38.990Z,100355.25
2022-09-20T13:27:47.001Z,100359.84
2022-09-20T13:30:48.672Z,100359.56
2022-09-20T13:33:50.768Z,100359.00
2022-09-20T13:36:58.576Z,100371.09
2022-09-20T13:40:00.908Z,100367.81
2022-09-20T13:43:24.755Z,100364.31
2022-09-20T13:46:32.357Z,100372.81
2022-09-20T13:49:33.979Z,100372.22
2022-09-20T13:52:52.368Z,100378.09
2022-09-20T13:55:56.978Z,100378.06
2022-09-20T13:59:05.186Z,100382.56
2022-09-20T14:02:31.045Z,100378.31
2022-09-20T14:05:33.798Z,100379.19
2022-09-20T14:08:45.918Z,100381.81
2022-09-20T14:11:48.088Z,100380.88
2022-09-20T14:14:51.231Z,100392.38
2022-09-20T14:17:54.464Z,100399.09
2022-09-20T14:20:56.942Z,100396.94
2022-09-20T14:24:02.884Z,100405.34
2022-09-20T14:27:22.919Z,100411.31
2022-09-20T14:30:35.139Z,100406.34
2022-09-20T14:33:42.708Z,100403.72
2022-09-20T14:36:44.981Z,100408.12
2022-09-20T14:39:53.850Z,100421.94
2022-09-20T14:42:57.325Z,100423.47
2022-09-20T14:46:02.048Z,100433.00
2022-09-20T14:49:40.673Z,100452.25
2022-09-20T14:52:44.123Z,100450.53
2022-09-20T14:56:00.434Z,100455.41
2022-09-20T14:59:09.566Z,100451.56
2022-09-20T15:02:14.688Z,100461.22
2022-09-20T15:05:26.119Z,100453.94
2022-09-20T15:08:28.060Z,100454.81
2022-09-20T15:11:30.077Z,100456.53
2022-09-20T15:14:36.510Z,100465.03
2022-09-20T15:17:39.722Z,100457.31
2022-09-20T15:20:41.283Z,100455.97
2022-09-20T15:23:42.911Z,100459.72
2022-09-20T15:26:45.435Z,100461.06
2022-09-20T15:29:47.016Z,100448.72
2022-09-20T15:32:48.720Z,100451.69
2022-09-20T15:35:50.425Z,100449.44
2022-09-20T15:38:53.973Z,100448.62
2022-09-20T15:41:55.630Z,100452.81
2022-09-20T15:44:57.184Z,100458.06
2022-09-20T15:47:58.865Z,100461.78
2022-09-20T15:51:08.811Z,100472.31
2022-09-20T15:54:13.966Z,100473.25
2022-09-20T15:57:15.982Z,100485.44
2022-09-20T16:00:20.878Z,100485.94
2022-09-20T16:03:29.835Z,100494.87
2022-09-20T16:06:32.815Z,100492.62
2022-09-20T16:09:36.263Z,100499.28
2022-09-20T16:12:37.877Z,100505.06
2022-09-20T16:15:39.551Z,100505.41
2022-09-20T16:19:00.769Z,100501.91
2022-09-20T16:22:02.371Z,100499.72
2022-09-20T16:25:06.000Z,100501.78
2022-09-20T16:28:07.736Z,100499.75
2022-09-20T16:31:32.802Z,100503.41
2022-09-20T16:34:36.434Z,100503.53
2022-09-20T16:37:39.536Z,100503.31
2022-09-20T16:40:41.645Z,100509.91
2022-09-20T16:43:43.229Z,100504.72
2022-09-20T16:46:45.791Z,100512.63
2022-09-20T16:49:47.914Z,100510.78
2022-09-20T16:52:50.070Z,100524.84
2022-09-20T16:55:52.109Z,100523.12
2022-09-20T16:58:54.526Z,100525.69
2022-09-20T17:01:56.406Z,100532.72
2022-09-20T17:04:58.140Z,100534.59
2022-09-20T17:08:00.913Z,100539.97
2022-09-20T17:11:02.586Z,100544.69
2022-09-20T17:14:05.112Z,100545.13
2022-09-20T17:17:06.666Z,100544.56
2022-09-20T17:20:08.510Z,100545.47
2022-09-20T17:23:10.201Z,100546.28
2022-09-20T17:26:16.100Z,100545.97
2022-09-20T17:29:19.371Z,100556.81
2022-09-20T17:32:21.015Z,100540.25
2022-09-20T17:35:22.700Z,100552.91
2022-09-20T17:38:24.447Z,100551.03
2022-09-20T17:41:27.492Z,100555.69
2022-09-20T17:44:29.090Z,100554.03
2022-09-20T17:47:30.756Z,100558.59
2022-09-20T17:50:32.305Z,100555.84
2022-09-20T17:53:34.990Z,100556.03
2022-09-20T17:56:37.167Z,100564.34
2022-09-20T17:59:38.810Z,100570.28
2022-09-20T18:02:40.433Z,100562.44
2022-09-20T18:05:42.368Z,100563.34
2022-09-20T18:08:55.827Z,100561.03
2022-09-20T18:11:57.551Z,100564.62
2022-09-20T18:14:59.300Z,100563.91
2022-09-20T18:18:00.931Z,100562.37
2022-09-20T18:21:10.287Z,100564.44
2022-09-20T18:24:12.177Z,100569.22
2022-09-20T18:27:13.748Z,100570.19
2022-09-20T18:30:15.499Z,100570.28
2022-09-20T18:33:17.323Z,100567.47
2022-09-20T18:36:19.019Z,100559.56
2022-09-20T18:39:25.645Z,100561.88
2022-09-20T18:42:27.437Z,100560.31
2022-09-20T18:45:29.235Z,100566.63
2022-09-20T18:48:34.044Z,100576.69
2022-09-20T18:51:39.801Z,100580.88
2022-09-20T18:54:41.804Z,100589.59
2022-09-20T18:57:43.703Z,100595.75
2022-09-20T19:00:46.400Z,100596.31
2022-09-20T19:04:07.131Z,100593.81
2022-09-20T19:07:36.203Z,100606.72
2022-09-20T19:10:49.279Z,100613.66
2022-09-20T19:14:06.636Z,100606.37
2022-09-20T19:17:10.611Z,100610.97
2022-09-20T19:20:24.698Z,100608.16
2022-09-20T19:23:28.872Z,100607.84
2022-09-20T19:26:32.567Z,100614.56
2022-09-20T19:29:34.633Z,100611.13
2022-09-20T19:32:36.614Z,100614.75
2022-09-20T19:35:47.400Z,100616.16
2022-09-20T19:39:07.298Z,100616.87
2022-09-20T19:42:33.229Z,100619.87
2022-09-20T19:45:53.071Z,100620.03
2022-09-20T19:49:08.054Z,100623.00
2022-09-20T19:52:13.785Z,100631.13
2022-09-20T19:55:16.181Z,100622.06
2022-09-20T19:58:18.229Z,100637.69
2022-09-20T20:01:24.660Z,100635.25
2022-09-20T20:04:26.654Z,100642.12
2022-09-20T20:07:39.981Z,100637.63
2022-09-20T20:10:50.463Z,100648.16
2022-09-20T20:14:05.093Z,100654.09
2022-09-20T20:17:38.555Z,100648.22
2022-09-20T20:20:47.657Z,100651.31
2022-09-20T20:24:10.735Z,100648.75
2022-09-20T20:27:12.653Z,100656.59
2022-09-20T20:30:14.808Z,100656.12
2022-09-20T20:33:16.954Z,100661.78
2022-09-20T20:36:18.662Z,100667.78
2022-09-20T20:39:20.444Z,100662.81
2022-09-20T20:42:22.199Z,100665.66
2022-09-20T20:45:24.136Z,100666.56
2022-09-20T20:48:26.021Z,100664.25
2022-09-20T20:51:28.164Z,100669.12
2022-09-20T20:54:30.098Z,100669.75
2022-09-20T20:57:32.136Z,100673.94
2022-09-20T21:00:33.776Z,100667.94
2022-09-20T21:03:35.713Z,100668.38
2022-09-20T21:06:40.648Z,100672.19
2022-09-20T21:09:42.406Z,100679.62
2022-09-20T21:12:43.970Z,100671.84
2022-09-20T21:15:48.783Z,100681.16
2022-09-20T21:18:51.205Z,100679.25
2022-09-20T21:21:52.844Z,100680.66
2022-09-20T21:24:55.341Z,100677.81
2022-09-20T21:27:58.443Z,100683.16
2022-09-20T21:31:04.284Z,100685.72
2022-09-20T21:34:08.645Z,100682.69
2022-09-20T21:37:10.780Z,100680.38
2022-09-20T21:40:12.356Z,100674.37
2022-09-20T21:43:14.051Z,100679.72
2022-09-20T21:46:21.869Z,100682.97
2022-09-20T21:49:23.596Z,100681.84
2022-09-20T21:52:25.736Z,100686.75
2022-09-20T21:55:27.688Z,100693.03
2022-09-20T21:58:29.846Z,100694.31
2022-09-20T22:01:35.446Z,100693.56
2022-09-20T22:04:37.176Z,100690.16
2022-09-20T22:07:38.832Z,100701.16
2022-09-20T22:10:40.740Z,100696.66
2022-09-20T22:13:45.949Z,100700.78
2022-09-20T22:16:48.987Z,100703.88
2022-09-20T22:19:50.854Z,100694.87
2022-09-20T22:22:52.518Z,100693.69
2022-09-20T22:26:00.173Z,100703.50
2022-09-20T22:29:02.304Z,100699.28
2022-09-20T22:32:04.148Z,100696.41
2022-09-20T22:35:06.321Z,100701.22
2022-09-20T22:38:08.308Z,100696.88
2022-09-20T22:41:11.372Z,100698.72
2022-09-20T22:44:12.959Z,100693.88
2022-09-20T22:47:14.809Z,100693.25
2022-09-20T22:50:16.765Z,100693.03
2022-09-20T22:53:18.658Z,100682.00
2022-09-20T22:56:31.566Z,100686.47
2022-09-20T22:59:33.592Z,100691.00
2022-09-20T23:02:35.493Z,100690.66
2022-09-20T23:05:39.844Z,100691.37
2022-09-20T23:08:42.222Z,100694.47
2022-09-20T23:11:44.956Z,100693.06
2022-09-20T23:14:46.775Z,100689.62
2022-09-20T23:17:48.437Z,100692.75
2022-09-20T23:20:59.374Z,100698.47
2022-09-20T23:24:04.092Z,100695.75
2022-09-20T23:27:06.057Z,100695.81
2022-09-20T23:30:08.346Z,100695.47
2022-09-20T23:33:10.222Z,100699.22
2022-09-20T23:36:12.175Z,100693.84
2022-09-20T23:39:14.637Z,100696.88
2022-09-20T23:42:16.544Z,100697.94
2022-09-20T23:45:18.303Z,100712.75
2022-09-20T23:48:19.873Z,100703.97
2022-09-20T23:51:24.253Z,100707.19
2022-09-20T23:54:25.835Z,100711.03
2022-09-20T23:57:27.494Z,100708.09
